x

San Francisco - 18nm West Of San Francisco, Ca (46026) Wave Buoy

9:50am - Tue 2nd Sep 2014 All times are PDT. -7 hours from GMT.

  • Sig Wave height 5.2ft
  • Swell Direction
  • Peak Period 8s
  • Average Period 6s
  • Wind
    7mph, 9mph gusts
  • Sea Temp 62°f
  • Air Temp 59°f
  • Sea Pressure 1011.7mb
  • San Francisco - 18nm West Of San Francisco, Ca
  • San Francisco - 18nm West Of San Francisco, Ca

More Historic Weather Station data

Upgrade to MSW Pro to gain access to the past 30 days of data for over 8000 Wavebouys and Weather Stations around the globe.

Join Pro

Comparision Forecast

View Surf forecast
   
Tue 09/02 9:50am 5ft 8s 6s 7 9 mph 1011.7mb 62f 59f
8:50am 6ft 8s 6s 9 11 mph 1011.5mb 62f 58f
7:50am 6ft 8s 6s 9 13 mph 1010.9mb 62f 58f
6:50am 6ft 8s 6s 11 16 mph 1010.3mb 62f 58f
5:50am 5ft 8s 6s 13 16 mph 1010.2mb 62f 58f
4:50am 5.5ft 7s 6s 13 16 mph 1009.9mb 62f 58f
3:50am 5ft 7s 6s 13 16 mph 1009.9mb 62f 60f
2:50am 5ft 7s 6s 9 13 mph 1009.9mb 62f 60f
1:50am 4.5ft 14s 6s 9 11 mph 1009.8mb 62f 60f
12:50am 4.5ft 8s 6s 9 11 mph 1009.9mb 62f 60f
Mon 09/01 11:50pm 5ft 15s 6s 11 13 mph 1009.7mb 63f 61f
10:50pm 5ft 15s 6s 11 16 mph 1009.7mb 63f 61f
9:50pm 4.5ft 7s 6s 13 18 mph 1009.7mb 63f 61f
8:50pm 5ft 8s 5s 16 18 mph 1009.4mb 63f 61f
7:50pm 5.5ft 8s 6s 20 25 mph 1008.6mb 63f 61f
6:50pm 6ft 8s 6s 22 25 mph 1008.6mb 63f 61f
5:50pm 6ft 8s 5s 20 25 mph 1009.1mb 63f 61f
4:50pm 6ft 8s 6s 20 25 mph 1009.5mb 63f 61f
3:50pm 6ft 8s 6s 20 22 mph 1009.8mb 63f 61f
2:50pm 5ft 8s 6s 20 22 mph 1010.4mb 63f 61f
1:50pm 5.5ft 8s 6s 16 20 mph 1010.9mb 64f 61f
12:50pm 5.5ft 8s 7s 13 16 mph 1011.4mb 64f 61f
11:50am 5.5ft 8s 7s 9 13 mph 1011.7mb 64f 62f
10:50am 5.5ft 8s 7s 4 7 mph 1011.7mb 63f 61f
9:50am 6ft 8s 7s  -  2 mph 1011.5mb 62f 61f
8:50am 7ft 8s 7s 2 4 mph 1011.3mb 62f 60f
7:50am 7.5ft 8s 7s 7 9 mph 1011mb 62f 60f
6:50am 7ft 8s 6s 9 11 mph 1010.7mb 62f 59f
5:50am 7ft 8s 6s 13 16 mph 1010.3mb 62f 60f
4:50am 8ft 8s 6s 16 20 mph 1010.3mb 62f 61f
3:50am 7.5ft 8s 6s 20 22 mph 1010.3mb 62f 61f
2:50am 7ft 8s 6s 20 22 mph 1010.6mb 62f 61f
1:50am 7ft 8s 6s 20 25 mph 1010.8mb 63f 62f
12:50am 7ft 7s 6s 16 20 mph 1011.2mb 63f 62f
Sun 08/31 11:50pm 6.5ft 7s 6s 18 20 mph 1011.3mb 63f 62f
10:50pm 7ft 7s 6s 16 22 mph 1011.4mb 63f 62f
9:50pm 6.5ft 7s 6s 16 20 mph 1011.5mb 63f 63f
8:50pm 6ft 8s 6s 11 13 mph 1011.8mb 63f 63f
7:50pm 5.5ft 7s 6s 13 16 mph 1011.5mb 63f 63f
6:50pm 5ft 7s 5s 16 20 mph 1011.5mb 63f 63f
5:50pm 5.5ft 7s 5s 18 22 mph 1011.8mb 63f 62f
4:50pm 5ft 7s 5s 20 22 mph 1012.1mb 63f 62f
3:50pm 5.5ft 7s 5s 20 25 mph 1012.4mb 63f 61f
2:50pm 5.5ft 7s 5s 22 25 mph 1012.8mb 63f 61f
1:50pm 5ft 7s 5s 22 27 mph 1013.2mb 63f 61f
12:50pm 5.5ft 7s 5s 22 27 mph 1013.8mb 63f 61f
11:50am 5.5ft 6s 5s 18 20 mph 1014.4mb 63f 61f
10:50am 6ft 6s 5s 20 25 mph 1014.1mb 63f 61f
9:50am 6ft 6s 5s 20 27 mph 1014mb 63f 61f
8:50am 5ft 7s 5s 20 25 mph 1013.8mb 63f 61f
7:50am 5ft 7s 5s 20 22 mph 1013.4mb 63f 62f
6:50am 5ft 7s 5s 16 20 mph 1013.2mb 63f 61f
5:50am 5ft 7s 5s 20 25 mph 1012.6mb 63f 61f
4:50am 5.5ft 7s 5s 20 25 mph 1012.7mb 63f 61f
3:50am 6ft 7s 5s 18 22 mph 1013mb 63f 61f
2:50am 6ft 7s 5s 20 25 mph 1012.9mb 63f 61f
1:50am 6ft 6s 5s 22 27 mph 1012.8mb 63f 61f
12:50am 5.5ft 7s 5s 20 25 mph 1012.9mb 63f 62f
Sat 08/30 11:50pm 6ft 8s 6s 22 25 mph 1012.7mb 63f 62f
10:50pm 6ft 7s 5s 22 27 mph 1012.7mb 64f 62f
9:50pm 6ft 7s 5s 22 27 mph 1012.7mb 64f 62f
8:50pm 7ft 7s 6s 25 27 mph 1012.1mb 64f 62f
7:50pm 6.5ft 7s 6s 20 27 mph 1012.3mb 64f 63f
6:50pm 6ft 7s 5s 20 22 mph 1012.3mb 64f 64f
5:50pm 5.5ft 6s 6s 22 27 mph 1012.3mb 64f 64f
4:50pm 5.5ft 7s 5s 16 20 mph 1012.8mb 64f 63f
3:50pm 6ft 7s 5s 18 22 mph 1013mb 64f 63f
2:50pm 5.5ft 7s 5s 18 22 mph 1013.2mb 64f 62f
1:50pm 5ft 10s 5s 18 22 mph 1013.6mb 64f 62f
12:50pm 5ft 6s 5s 18 20 mph 1013.7mb 64f 62f
11:50am 5ft 7s 5s 18 22 mph 1014.1mb 64f 62f
10:50am 5ft 7s 5s 20 25 mph 1014mb 64f 62f
9:50am 5ft 6s 5s 18 20 mph 1013.6mb 64f 62f
8:50am 5.5ft 7s 6s 18 22 mph 1013.2mb 63f 62f
7:50am 5.5ft 7s 6s 16 20 mph 1013.1mb 63f 62f
6:50am 5ft 10s 6s 16 18 mph 1013.1mb 63f 62f
5:50am 5ft 6s 6s 13 18 mph 1012.7mb 64f 62f
4:50am 5ft 7s 6s 16 18 mph 1012.6mb 64f 62f
3:50am 5ft 7s 6s 13 16 mph 1012.6mb 64f 62f
2:50am 5ft 7s 6s 16 18 mph 1012.6mb 64f 62f
1:50am 5.5ft 7s 6s 16 18 mph 1012.9mb 64f 62f
12:50am 6ft 7s 6s 18 22 mph 1013mb 64f 62f
Fri 08/29 11:50pm 5.5ft 7s 6s 18 22 mph 1012.9mb 64f 62f
10:50pm 6ft 11s 6s 22 27 mph 1013mb 64f 62f
9:50pm 5ft 7s 6s 18 22 mph 1013.7mb 64f 63f
8:50pm 5.5ft 11s 6s 20 25 mph 1012.9mb 64f 62f
7:50pm 5ft 10s 6s 18 22 mph 1013.1mb 64f 62f
6:50pm 5.5ft 11s 6s 18 20 mph 1013.1mb 64f 62f
5:50pm 5ft 11s 6s 18 20 mph 1013.1mb 64f 62f